Time;durP1;ratioP1;P1;durP2;ratioP2;P2;SDS_P1;SDS_P2;PMS_P1;PMS_P2;Temp;Humidity;BMP_temperature;BMP_pressure;BME280_temperature;BME280_humidity;BME280_pressure;Samples;Min_cycle;Max_cycle;Signal;HPM_P1;HPM_P2
2021/04/03 00:01:59;;;;;;;18.13;5.05;;;;;;;;;;5080119;28;20179;-78
2021/04/03 00:04:25;;;;;;;15.35;5.28;;;;;;;;;;5092751;28;20235;-77
2021/04/03 00:06:51;;;;;;;18.08;4.22;;;;;;;;;;5101326;28;20195;-76
2021/04/03 00:09:17;;;;;;;16.02;3.75;;;;;;;;;;5090331;28;20185;-77
2021/04/03 00:11:43;;;;;;;19.60;5.55;;;;;;;;;;5090066;28;20316;-77
2021/04/03 00:14:09;;;;;;;19.00;6.15;;;;;;;;;;5098215;28;20195;-77
2021/04/03 00:16:35;;;;;;;20.02;4.50;;;;;;;;;;5089705;28;20206;-78
2021/04/03 00:19:01;;;;;;;17.80;6.07;;;;;;;;;;5090220;28;20220;-77
2021/04/03 00:21:27;;;;;;;19.27;4.00;;;;;;;;;;5089797;28;20723;-76
2021/04/03 00:23:53;;;;;;;25.85;5.20;;;;;;;;;;5106004;28;20189;-76
2021/04/03 00:26:19;;;;;;;23.13;5.05;;;;;;;;;;5100209;28;20203;-76
2021/04/03 00:28:45;;;;;;;16.70;4.90;;;;;;;;;;5093347;28;20178;-76
2021/04/03 00:31:11;;;;;;;22.40;4.68;;;;;;;;;;5086011;28;20175;-77
2021/04/03 00:33:37;;;;;;;16.55;4.65;;;;;;;;;;5089367;28;20168;-77
2021/04/03 00:36:03;;;;;;;22.17;5.47;;;;;;;;;;5093095;28;20278;-77
2021/04/03 00:38:29;;;;;;;22.70;5.80;;;;;;;;;;5093351;28;20199;-77
2021/04/03 00:40:56;;;;;;;16.98;5.40;;;;;;;;;;5093521;28;20689;-78
2021/04/03 00:43:23;;;;;;;27.95;5.82;;;;;;;;;;5093479;28;20179;-76
2021/04/03 00:45:49;;;;;;;20.05;5.38;;;;;;;;;;5093420;28;20190;-78
2021/04/03 00:48:15;;;;;;;21.02;5.22;;;;;;;;;;5103665;28;20642;-76
2021/04/03 00:50:42;;;;;;;25.88;5.40;;;;;;;;;;5112684;28;20183;-76
2021/04/03 00:53:10;;;;;;;17.60;4.47;;;;;;;;;;5112533;28;20247;-77
2021/04/03 00:55:36;;;;;;;18.83;5.15;;;;;;;;;;5113740;28;20206;-76
2021/04/03 00:58:02;;;;;;;22.23;5.90;;;;;;;;;;5113993;28;20203;-78
2021/04/03 01:00:28;;;;;;;22.52;5.97;;;;;;;;;;5113744;27;20163;-76
2021/04/03 01:02:54;;;;;;;21.63;4.95;;;;;;;;;;5113489;28;20669;-76
2021/04/03 01:05:25;;;;;;;20.38;5.97;;;;;;;;;;5095586;28;20207;-77
2021/04/03 01:07:51;;;;;;;22.40;5.95;;;;;;;;;;5092941;28;20220;-77
2021/04/03 01:10:21;;;;;;;21.98;5.15;;;;;;;;;;5093383;28;20669;-77
2021/04/03 01:12:58;;;;;;;21.55;5.07;;;;;;;;;;5093794;28;20178;-76
2021/04/03 01:15:33;;;;;;;24.80;6.93;;;;;;;;;;5092997;28;20279;-76
2021/04/03 01:18:09;;;;;;;20.05;4.70;;;;;;;;;;5093752;28;20263;-77
2021/04/03 01:20:40;;;;;;;17.92;5.28;;;;;;;;;;5095474;28;20163;-77
2021/04/03 01:23:25;;;;;;;20.77;5.07;;;;;;;;;;5093050;28;20674;-78
2021/04/03 01:26:09;;;;;;;24.17;5.10;;;;;;;;;;5087922;28;20196;-76
2021/04/03 01:29:04;;;;;;;22.92;5.90;;;;;;;;;;5097202;28;20179;-77
2021/04/03 01:31:31;;;;;;;21.42;5.47;;;;;;;;;;5085364;28;20300;-77
2021/04/03 01:33:59;;;;;;;23.10;5.47;;;;;;;;;;5109844;28;20524;-77
2021/04/03 01:36:26;;;;;;;22.52;5.53;;;;;;;;;;5092199;28;20195;-76
2021/04/03 01:38:55;;;;;;;19.88;5.13;;;;;;;;;;5092778;28;20264;-78
2021/04/03 01:41:25;;;;;;;28.10;6.38;;;;;;;;;;5105503;28;20183;-77
2021/04/03 01:43:51;;;;;;;22.25;6.10;;;;;;;;;;5091260;28;20172;-78
2021/04/03 01:46:18;;;;;;;26.30;5.65;;;;;;;;;;5092655;28;20200;-77
2021/04/03 01:48:45;;;;;;;17.83;4.90;;;;;;;;;;5098524;28;20218;-78
2021/04/03 01:51:11;;;;;;;19.08;4.85;;;;;;;;;;5100327;28;20179;-76
2021/04/03 01:53:38;;;;;;;19.98;6.05;;;;;;;;;;5112674;28;20175;-76
2021/04/03 01:56:05;;;;;;;13.02;5.22;;;;;;;;;;5109976;28;20311;-76
2021/04/03 01:58:32;;;;;;;23.40;5.72;;;;;;;;;;5103393;28;20674;-76
2021/04/03 02:00:58;;;;;;;18.05;5.63;;;;;;;;;;5100473;28;20189;-77
2021/04/03 02:03:25;;;;;;;20.08;5.10;;;;;;;;;;5106365;28;20205;-77
2021/04/03 02:05:51;;;;;;;25.13;5.63;;;;;;;;;;5100487;28;20206;-78
2021/04/03 02:08:18;;;;;;;13.85;5.10;;;;;;;;;;5107865;28;20176;-75
2021/04/03 02:10:45;;;;;;;18.77;5.68;;;;;;;;;;5091348;28;20186;-76
2021/04/03 02:13:12;;;;;;;17.58;5.93;;;;;;;;;;5092779;28;20224;-78
2021/04/03 02:15:38;;;;;;;33.00;5.95;;;;;;;;;;5101554;28;20203;-78
2021/04/03 02:18:06;;;;;;;14.52;5.35;;;;;;;;;;5113707;28;20203;-76
2021/04/03 02:20:32;;;;;;;21.40;5.50;;;;;;;;;;5096126;28;20174;-76
2021/04/03 02:23:00;;;;;;;22.42;6.63;;;;;;;;;;5111118;28;20178;-77
2021/04/03 02:25:26;;;;;;;21.23;6.10;;;;;;;;;;5110851;28;20196;-77
2021/04/03 02:27:52;;;;;;;21.50;6.03;;;;;;;;;;5095561;28;20221;-74
2021/04/03 02:30:19;;;;;;;24.20;5.82;;;;;;;;;;5095521;28;20179;-78
2021/04/03 02:32:47;;;;;;;21.20;6.25;;;;;;;;;;5095057;28;20678;-77
2021/04/03 02:35:14;;;;;;;17.73;5.95;;;;;;;;;;5095858;28;20729;-76
2021/04/03 02:37:40;;;;;;;22.17;6.13;;;;;;;;;;5097781;28;20571;-76
2021/04/03 02:40:07;;;;;;;22.08;6.72;;;;;;;;;;5103845;28;20179;-78
2021/04/03 02:42:37;;;;;;;20.98;5.10;;;;;;;;;;5112326;28;20669;-77
2021/04/03 02:45:06;;;;;;;23.58;6.03;;;;;;;;;;5095235;28;20203;-77
2021/04/03 02:47:48;;;;;;;18.08;5.40;;;;;;;;;;5094840;28;20186;-78
2021/04/03 02:50:15;;;;;;;20.55;5.30;;;;;;;;;;5095311;28;20184;-78
2021/04/03 02:52:42;;;;;;;17.63;5.43;;;;;;;;;;5081582;28;20637;-77
2021/04/03 02:55:09;;;;;;;17.15;6.28;;;;;;;;;;5100294;28;20207;-77
2021/04/03 02:57:37;;;;;;;23.65;6.70;;;;;;;;;;5095195;28;20244;-76
2021/04/03 03:00:05;;;;;;;21.45;5.65;;;;;;;;;;5095219;28;20180;-77
2021/04/03 03:02:33;;;;;;;20.38;5.57;;;;;;;;;;5081689;28;20177;-76
2021/04/03 03:05:00;;;;;;;19.98;5.65;;;;;;;;;;5108349;28;20216;-77
2021/04/03 03:07:26;;;;;;;21.55;5.68;;;;;;;;;;5094958;28;20199;-78
2021/04/03 03:09:53;;;;;;;19.92;6.15;;;;;;;;;;5109367;28;20187;-78
2021/04/03 03:12:21;;;;;;;20.27;5.93;;;;;;;;;;5113029;28;20167;-77
2021/04/03 03:14:48;;;;;;;22.67;6.30;;;;;;;;;;5095718;28;20175;-77
2021/04/03 03:17:14;;;;;;;16.75;5.47;;;;;;;;;;5103607;28;20294;-77
2021/04/03 03:19:40;;;;;;;17.65;5.45;;;;;;;;;;5095104;28;20249;-77
2021/04/03 03:22:07;;;;;;;17.85;5.25;;;;;;;;;;5093425;28;20644;-77
2021/04/03 03:24:36;;;;;;;19.08;5.63;;;;;;;;;;5095846;28;20180;-77
2021/04/03 03:27:03;;;;;;;18.33;4.95;;;;;;;;;;5111463;28;20189;-80
2021/04/03 03:29:30;;;;;;;17.90;5.65;;;;;;;;;;5109552;27;20577;-78
2021/04/03 03:31:57;;;;;;;19.98;5.93;;;;;;;;;;5094390;28;20179;-79
2021/04/03 03:34:23;;;;;;;17.15;5.68;;;;;;;;;;5094221;28;20183;-77
2021/04/03 03:36:49;;;;;;;17.35;5.55;;;;;;;;;;5094395;28;20191;-77
2021/04/03 03:39:15;;;;;;;14.02;5.63;;;;;;;;;;5094826;28;20532;-77
2021/04/03 03:41:41;;;;;;;21.48;5.55;;;;;;;;;;5094358;28;20186;-78
2021/04/03 03:44:08;;;;;;;19.20;6.00;;;;;;;;;;5094044;28;20185;-76
2021/04/03 03:46:34;;;;;;;13.68;5.82;;;;;;;;;;5104305;28;20206;-76
2021/04/03 03:49:01;;;;;;;11.07;5.25;;;;;;;;;;5111490;28;20537;-78
2021/04/03 03:51:27;;;;;;;22.80;5.53;;;;;;;;;;5094437;28;20232;-76
2021/04/03 03:53:53;;;;;;;24.17;6.20;;;;;;;;;;5093601;28;20262;-78
2021/04/03 03:56:19;;;;;;;16.33;6.00;;;;;;;;;;5094225;28;20751;-77
2021/04/03 03:58:45;;;;;;;15.20;6.30;;;;;;;;;;5099518;28;20214;-75
2021/04/03 04:01:11;;;;;;;12.75;4.47;;;;;;;;;;5095485;28;20457;-77
2021/04/03 04:03:38;;;;;;;16.15;5.40;;;;;;;;;;5093847;28;20203;-77
2021/04/03 04:06:04;;;;;;;15.35;4.93;;;;;;;;;;5102825;28;20259;-77
2021/04/03 04:08:30;;;;;;;22.00;5.70;;;;;;;;;;5107201;28;20176;-77
2021/04/03 04:10:56;;;;;;;17.25;5.20;;;;;;;;;;5094044;28;20188;-77
2021/04/03 04:13:23;;;;;;;11.45;5.55;;;;;;;;;;5104547;28;20172;-78
2021/04/03 04:15:49;;;;;;;14.93;5.30;;;;;;;;;;5094607;28;20203;-78
2021/04/03 04:18:15;;;;;;;18.35;6.00;;;;;;;;;;5098353;28;20217;-78
2021/04/03 04:20:41;;;;;;;13.52;5.13;;;;;;;;;;5109980;28;20255;-77
2021/04/03 04:23:07;;;;;;;10.88;5.55;;;;;;;;;;5093685;28;20541;-78
2021/04/03 04:25:33;;;;;;;13.75;5.10;;;;;;;;;;5104206;28;20246;-77
2021/04/03 04:27:59;;;;;;;15.63;5.95;;;;;;;;;;5112710;28;20269;-77
2021/04/03 04:30:27;;;;;;;12.30;5.13;;;;;;;;;;5095700;28;20187;-77
2021/04/03 04:32:53;;;;;;;12.77;5.13;;;;;;;;;;5090256;28;20183;-77
2021/04/03 04:35:19;;;;;;;23.25;5.93;;;;;;;;;;5093562;28;20215;-77
2021/04/03 04:37:45;;;;;;;15.52;5.60;;;;;;;;;;5097204;28;20190;-76
2021/04/03 04:40:12;;;;;;;12.25;5.80;;;;;;;;;;5111688;28;20182;-76
2021/04/03 04:42:44;;;;;;;17.65;6.60;;;;;;;;;;5095854;28;20558;-77
2021/04/03 04:45:11;;;;;;;20.23;7.38;;;;;;;;;;5093839;28;20278;-77
2021/04/03 04:47:38;;;;;;;13.15;5.47;;;;;;;;;;5093609;28;20258;-76
2021/04/03 04:50:08;;;;;;;13.80;5.55;;;;;;;;;;5093324;28;20183;-77
2021/04/03 04:52:34;;;;;;;15.70;5.75;;;;;;;;;;5093258;28;20179;-78
2021/04/03 04:55:00;;;;;;;18.80;5.80;;;;;;;;;;5092834;28;20195;-77
2021/04/03 04:57:26;;;;;;;19.40;5.63;;;;;;;;;;5098730;28;20202;-77
2021/04/03 04:59:53;;;;;;;17.95;5.70;;;;;;;;;;5113720;28;20529;-78
2021/04/03 05:02:19;;;;;;;28.77;6.80;;;;;;;;;;5099274;28;20174;-77
2021/04/03 05:04:45;;;;;;;14.63;5.97;;;;;;;;;;5092289;28;20191;-76
2021/04/03 05:07:11;;;;;;;17.10;6.65;;;;;;;;;;5092736;28;20535;-77
2021/04/03 05:09:37;;;;;;;13.30;5.72;;;;;;;;;;5092906;28;20190;-76
2021/04/03 05:12:03;;;;;;;16.05;6.22;;;;;;;;;;5093125;28;20183;-76
2021/04/03 05:14:30;;;;;;;18.27;5.78;;;;;;;;;;5093453;28;20642;-78
2021/04/03 05:16:56;;;;;;;17.55;7.57;;;;;;;;;;5092738;28;20544;-78
2021/04/03 05:19:22;;;;;;;22.00;6.63;;;;;;;;;;5092569;28;20176;-77
2021/04/03 05:21:48;;;;;;;18.98;5.47;;;;;;;;;;5103883;28;20167;-76
2021/04/03 05:24:14;;;;;;;20.27;6.40;;;;;;;;;;5092802;28;20179;-77
2021/04/03 05:26:40;;;;;;;15.23;6.60;;;;;;;;;;5098448;28;20724;-76
2021/04/03 05:29:06;;;;;;;16.83;6.22;;;;;;;;;;5108820;28;20183;-77
2021/04/03 05:31:32;;;;;;;13.07;6.63;;;;;;;;;;5093190;28;20202;-76
2021/04/03 05:33:58;;;;;;;13.60;5.60;;;;;;;;;;5104910;28;20182;-76
2021/04/03 05:36:25;;;;;;;15.43;5.82;;;;;;;;;;5093391;28;20197;-77
2021/04/03 05:38:51;;;;;;;12.05;6.13;;;;;;;;;;5102542;28;20285;-76
2021/04/03 05:41:17;;;;;;;13.82;5.70;;;;;;;;;;5092647;28;20183;-76
2021/04/03 05:43:46;;;;;;;11.82;6.00;;;;;;;;;;5092608;28;20513;-76
2021/04/03 05:46:12;;;;;;;16.02;5.80;;;;;;;;;;5092836;28;20196;-74
2021/04/03 05:48:38;;;;;;;14.63;6.50;;;;;;;;;;5092644;28;20187;-78
2021/04/03 05:51:04;;;;;;;19.83;6.25;;;;;;;;;;5081999;28;20640;-76
2021/04/03 05:53:31;;;;;;;12.93;5.43;;;;;;;;;;5110257;28;20261;-77
2021/04/03 05:55:57;;;;;;;16.63;5.45;;;;;;;;;;5116938;28;20202;-78
2021/04/03 05:58:23;;;;;;;18.27;6.50;;;;;;;;;;5117097;27;20224;-76
2021/04/03 06:00:53;;;;;;;15.07;5.97;;;;;;;;;;5117458;28;20524;-76
2021/04/03 06:03:19;;;;;;;11.25;5.32;;;;;;;;;;5116801;28;20202;-77
2021/04/03 06:05:48;;;;;;;12.25;5.18;;;;;;;;;;5109056;27;20222;-78
2021/04/03 06:08:14;;;;;;;12.40;5.43;;;;;;;;;;5096680;28;20574;-77
2021/04/03 06:10:40;;;;;;;10.77;5.50;;;;;;;;;;5096576;28;20187;-77
2021/04/03 06:13:18;;;;;;;9.32;6.15;;;;;;;;;;5095886;28;20186;-79
2021/04/03 06:15:45;;;;;;;12.02;5.18;;;;;;;;;;5095201;28;20237;-78
2021/04/03 06:18:12;;;;;;;18.95;6.05;;;;;;;;;;5100455;28;20187;-77
2021/04/03 06:20:42;;;;;;;16.15;5.10;;;;;;;;;;5096126;28;20254;-76
2021/04/03 06:23:09;;;;;;;11.57;5.53;;;;;;;;;;5095953;28;20179;-80
2021/04/03 06:25:56;;;;;;;11.55;5.63;;;;;;;;;;5096091;28;20278;-77
2021/04/03 06:28:26;;;;;;;13.43;6.80;;;;;;;;;;5096182;28;20262;-79
2021/04/03 06:30:52;;;;;;;22.48;10.15;;;;;;;;;;5095355;28;20773;-78
2021/04/03 06:33:19;;;;;;;18.88;9.90;;;;;;;;;;5097031;28;20532;-77
2021/04/03 06:35:46;;;;;;;10.95;6.40;;;;;;;;;;5096376;28;20195;-77
2021/04/03 06:38:25;;;;;;;10.15;5.68;;;;;;;;;;5103504;28;20203;-78
2021/04/03 06:40:52;;;;;;;7.78;5.65;;;;;;;;;;5097876;28;20580;-78
2021/04/03 06:43:18;;;;;;;7.63;4.28;;;;;;;;;;5104145;27;20787;-74
2021/04/03 06:45:45;;;;;;;8.48;4.80;;;;;;;;;;5095377;28;20282;-73
2021/04/03 06:48:15;;;;;;;10.60;5.22;;;;;;;;;;5095789;28;20635;-73
2021/04/03 06:50:46;;;;;;;10.45;5.50;;;;;;;;;;5095013;28;20266;-74
2021/04/03 06:53:13;;;;;;;10.23;4.68;;;;;;;;;;5094897;28;20175;-75
2021/04/03 06:55:40;;;;;;;5.97;4.43;;;;;;;;;;5105496;28;20205;-74
2021/04/03 06:58:07;;;;;;;8.68;5.20;;;;;;;;;;5114793;28;20582;-73
2021/04/03 07:00:34;;;;;;;8.75;4.45;;;;;;;;;;5095883;28;20225;-75
2021/04/03 07:03:00;;;;;;;8.30;4.00;;;;;;;;;;5094992;28;20235;-74
2021/04/03 07:05:31;;;;;;;6.10;4.53;;;;;;;;;;5113106;28;20237;-74
2021/04/03 07:07:58;;;;;;;5.60;4.25;;;;;;;;;;5115756;28;20257;-74
2021/04/03 07:10:24;;;;;;;6.88;3.95;;;;;;;;;;5115488;28;20187;-74
2021/04/03 07:12:52;;;;;;;6.65;4.63;;;;;;;;;;5094962;28;20179;-74
2021/04/03 07:15:18;;;;;;;6.50;4.28;;;;;;;;;;5095216;28;20210;-73
2021/04/03 07:17:45;;;;;;;10.27;4.22;;;;;;;;;;5105999;28;20705;-74
2021/04/03 07:20:13;;;;;;;7.63;4.05;;;;;;;;;;5111896;27;20171;-74
2021/04/03 07:22:40;;;;;;;9.65;4.45;;;;;;;;;;5095486;28;20179;-75
2021/04/03 07:25:08;;;;;;;8.10;4.13;;;;;;;;;;5095007;28;20207;-74
2021/04/03 07:27:36;;;;;;;8.15;4.82;;;;;;;;;;5095374;28;20159;-74
2021/04/03 07:30:02;;;;;;;5.43;3.97;;;;;;;;;;5095265;28;20172;-74
2021/04/03 07:32:31;;;;;;;6.70;4.15;;;;;;;;;;5095238;28;20585;-74
2021/04/03 07:34:57;;;;;;;7.15;4.40;;;;;;;;;;5094819;28;20192;-75
2021/04/03 07:37:36;;;;;;;7.13;4.00;;;;;;;;;;5095069;28;20189;-74
2021/04/03 07:40:03;;;;;;;7.65;3.85;;;;;;;;;;5094848;28;20254;-75
2021/04/03 07:42:34;;;;;;;5.45;3.40;;;;;;;;;;5097523;28;20520;-74
2021/04/03 07:45:00;;;;;;;4.97;3.20;;;;;;;;;;5123733;28;20203;-74
2021/04/03 07:47:26;;;;;;;4.43;3.63;;;;;;;;;;5134272;27;20183;-74
2021/04/03 07:49:53;;;;;;;7.40;3.53;;;;;;;;;;5127299;28;20205;-74
2021/04/03 07:52:39;;;;;;;8.90;3.42;;;;;;;;;;5113636;28;20179;-76
2021/04/03 07:55:31;;;;;;;6.45;3.65;;;;;;;;;;5112437;28;20210;-76
2021/04/03 07:58:16;;;;;;;8.15;3.75;;;;;;;;;;5105587;28;20239;-76
2021/04/03 08:00:42;;;;;;;4.20;3.00;;;;;;;;;;5120166;28;20186;-76
2021/04/03 08:03:08;;;;;;;4.00;3.30;;;;;;;;;;5103401;28;20193;-76
2021/04/03 08:05:35;;;;;;;5.50;3.20;;;;;;;;;;5092243;28;20211;-76
2021/04/03 08:08:01;;;;;;;3.15;2.30;;;;;;;;;;5091585;28;20191;-76
2021/04/03 08:10:27;;;;;;;7.45;3.17;;;;;;;;;;5090661;28;20211;-77
2021/04/03 08:12:54;;;;;;;5.45;3.00;;;;;;;;;;5102301;28;20182;-75
2021/04/03 08:15:22;;;;;;;4.03;3.00;;;;;;;;;;5092286;28;20257;-77
2021/04/03 08:17:54;;;;;;;5.57;2.83;;;;;;;;;;5090479;28;20199;-75
2021/04/03 08:20:21;;;;;;;5.32;3.28;;;;;;;;;;5090254;28;20178;-76
2021/04/03 08:23:06;;;;;;;10.20;2.88;;;;;;;;;;5090173;28;20191;-77
2021/04/03 08:25:33;;;;;;;4.10;2.78;;;;;;;;;;5090453;28;20202;-77
2021/04/03 08:28:02;;;;;;;4.35;2.40;;;;;;;;;;5090233;28;20198;-77
2021/04/03 08:30:29;;;;;;;5.15;2.90;;;;;;;;;;5087862;28;20218;-77
2021/04/03 08:33:08;;;;;;;4.38;3.45;;;;;;;;;;5103293;28;20183;-78
2021/04/03 08:35:35;;;;;;;4.00;2.60;;;;;;;;;;5097467;28;20338;-78
2021/04/03 08:38:18;;;;;;;4.25;2.10;;;;;;;;;;5090098;28;20211;-77
2021/04/03 08:40:44;;;;;;;2.85;2.03;;;;;;;;;;5088491;28;20183;-76
2021/04/03 08:43:31;;;;;;;2.50;1.60;;;;;;;;;;5089975;28;20179;-77
2021/04/03 08:46:08;;;;;;;3.40;1.80;;;;;;;;;;5088101;28;20843;-77
2021/04/03 08:48:35;;;;;;;2.10;1.35;;;;;;;;;;5092905;28;20185;-77
2021/04/03 08:51:01;;;;;;;2.55;1.30;;;;;;;;;;5090223;28;20650;-77
2021/04/03 08:53:35;;;;;;;2.53;1.45;;;;;;;;;;5093159;28;20182;-78
2021/04/03 08:56:01;;;;;;;9.85;1.90;;;;;;;;;;5089598;28;20203;-77
2021/04/03 08:58:27;;;;;;;2.85;1.98;;;;;;;;;;5089509;28;20211;-77
2021/04/03 09:00:54;;;;;;;2.20;1.50;;;;;;;;;;5101495;28;20175;-76
2021/04/03 09:03:20;;;;;;;2.25;1.50;;;;;;;;;;5109957;28;20203;-76
2021/04/03 09:05:49;;;;;;;3.35;1.48;;;;;;;;;;5093604;28;20238;-77
2021/04/03 09:08:22;;;;;;;3.10;1.83;;;;;;;;;;5089243;28;20264;-77
2021/04/03 09:10:55;;;;;;;2.38;1.40;;;;;;;;;;5090102;28;20462;-76
2021/04/03 09:13:21;;;;;;;3.38;1.40;;;;;;;;;;5088904;28;20548;-76
2021/04/03 09:15:48;;;;;;;2.25;1.30;;;;;;;;;;5089581;28;20207;-76
2021/04/03 09:18:14;;;;;;;2.30;1.38;;;;;;;;;;5088845;28;20231;-76
2021/04/03 09:20:48;;;;;;;2.28;1.45;;;;;;;;;;5089264;28;20562;-76
2021/04/03 09:23:14;;;;;;;3.10;1.85;;;;;;;;;;5097521;28;20179;-76
2021/04/03 09:25:40;;;;;;;2.03;1.30;;;;;;;;;;5113947;28;20187;-76
2021/04/03 09:28:06;;;;;;;3.00;1.58;;;;;;;;;;5101508;28;20186;-77
2021/04/03 09:30:39;;;;;;;2.97;1.80;;;;;;;;;;5092171;28;20189;-75
2021/04/03 09:33:22;;;;;;;3.13;1.35;;;;;;;;;;5092677;28;20180;-76
2021/04/03 09:35:48;;;;;;;2.47;1.38;;;;;;;;;;5094072;28;20285;-76
2021/04/03 09:38:14;;;;;;;2.70;1.90;;;;;;;;;;5110568;28;20289;-77
2021/04/03 09:40:43;;;;;;;3.40;2.10;;;;;;;;;;5107040;28;20168;-76
2021/04/03 09:43:16;;;;;;;2.60;1.80;;;;;;;;;;5092973;28;20536;-77
2021/04/03 09:45:42;;;;;;;3.20;1.50;;;;;;;;;;5092807;28;20191;-76
2021/04/03 09:48:11;;;;;;;3.80;2.00;;;;;;;;;;5091920;28;20183;-76
2021/04/03 09:50:37;;;;;;;14.23;11.47;;;;;;;;;;5102242;28;20465;-77
2021/04/03 09:53:08;;;;;;;2.80;1.80;;;;;;;;;;5102426;28;20922;-75
2021/04/03 09:55:34;;;;;;;3.10;2.70;;;;;;;;;;5114030;28;20746;-75
2021/04/03 09:58:00;;;;;;;4.23;2.60;;;;;;;;;;5113756;28;20452;-76
2021/04/03 10:00:26;;;;;;;3.20;2.77;;;;;;;;;;5113613;28;20423;-76
2021/04/03 10:02:52;;;;;;;2.60;1.93;;;;;;;;;;5113110;28;20427;-76
2021/04/03 10:05:18;;;;;;;3.27;2.33;;;;;;;;;;5096682;28;20449;-76
2021/04/03 10:07:44;;;;;;;2.40;2.00;;;;;;;;;;5092505;28;20452;-76
2021/04/03 10:10:10;;;;;;;2.80;2.10;;;;;;;;;;5092643;28;20418;-76
2021/04/03 10:12:36;;;;;;;3.10;2.47;;;;;;;;;;5092608;28;20940;-74
2021/04/03 10:15:03;;;;;;;3.40;2.87;;;;;;;;;;5092178;28;20441;-77
2021/04/03 10:17:29;;;;;;;3.93;2.77;;;;;;;;;;5092700;28;20472;-76
2021/04/03 10:19:55;;;;;;;4.33;3.10;;;;;;;;;;5093255;28;20481;-75
2021/04/03 10:22:21;;;;;;;4.37;2.60;;;;;;;;;;5092265;28;20405;-75
2021/04/03 10:24:47;;;;;;;3.30;2.37;;;;;;;;;;5096277;28;20909;-75
2021/04/03 10:27:13;;;;;;;3.80;3.40;;;;;;;;;;5090987;28;20424;-76
2021/04/03 10:29:39;;;;;;;2.80;2.10;;;;;;;;;;5090902;28;20413;-77
2021/04/03 10:32:05;;;;;;;2.60;2.10;;;;;;;;;;5092208;28;20425;-77
2021/04/03 10:34:31;;;;;;;2.90;2.20;;;;;;;;;;5095690;28;21059;-77
2021/04/03 10:36:57;;;;;;;3.93;2.33;;;;;;;;;;5101615;28;20429;-76
2021/04/03 10:39:23;;;;;;;3.10;2.30;;;;;;;;;;5092388;28;20572;-76
2021/04/03 10:41:49;;;;;;;3.17;2.10;;;;;;;;;;5092562;28;20405;-77
2021/04/03 10:44:15;;;;;;;4.57;2.50;;;;;;;;;;5102917;28;20422;-76
2021/04/03 10:46:41;;;;;;;4.00;2.27;;;;;;;;;;5092279;28;20459;-76
2021/04/03 10:49:07;;;;;;;3.57;2.60;;;;;;;;;;5092054;28;20467;-75
2021/04/03 10:51:33;;;;;;;2.70;1.90;;;;;;;;;;5092079;28;20421;-76
2021/04/03 10:54:00;;;;;;;3.10;2.30;;;;;;;;;;5091260;28;20418;-76
2021/04/03 10:56:26;;;;;;;2.73;2.33;;;;;;;;;;5091824;28;20519;-76
2021/04/03 10:58:53;;;;;;;3.07;2.77;;;;;;;;;;5078222;28;20588;-76
2021/04/03 11:01:19;;;;;;;2.70;2.10;;;;;;;;;;5079092;28;20536;-76
2021/04/03 11:03:45;;;;;;;2.97;2.20;;;;;;;;;;5104664;28;20520;-77
2021/04/03 11:06:11;;;;;;;3.33;3.03;;;;;;;;;;5106043;28;20899;-76
2021/04/03 11:08:37;;;;;;;3.07;2.63;;;;;;;;;;5091831;28;20797;-77
2021/04/03 11:11:03;;;;;;;3.80;2.80;;;;;;;;;;5092102;28;20436;-77
2021/04/03 11:13:29;;;;;;;3.40;2.57;;;;;;;;;;5091317;28;20989;-76
2021/04/03 11:15:55;;;;;;;2.97;2.67;;;;;;;;;;5091835;28;20548;-76
2021/04/03 11:18:21;;;;;;;3.50;2.43;;;;;;;;;;5104921;28;20460;-76
2021/04/03 11:20:47;;;;;;;3.00;2.70;;;;;;;;;;5091943;27;20477;-76
2021/04/03 11:23:13;;;;;;;3.70;2.97;;;;;;;;;;5104867;28;21140;-76
2021/04/03 11:25:39;;;;;;;3.00;2.30;;;;;;;;;;5100217;28;20449;-76
2021/04/03 11:28:05;;;;;;;3.87;3.00;;;;;;;;;;5091302;28;20413;-77
2021/04/03 11:30:31;;;;;;;3.20;2.90;;;;;;;;;;5093132;28;20452;-76
2021/04/03 11:32:58;;;;;;;3.53;3.20;;;;;;;;;;5098485;28;20504;-77
2021/04/03 11:35:24;;;;;;;10.43;9.17;;;;;;;;;;5097954;28;20437;-75
2021/04/03 11:37:51;;;;;;;4.43;4.00;;;;;;;;;;5088705;28;21293;-73
2021/04/03 11:40:17;;;;;;;4.27;3.07;;;;;;;;;;5096951;28;20428;-72
2021/04/03 11:42:45;;;;;;;3.57;3.20;;;;;;;;;;5111544;28;20493;-73
2021/04/03 11:45:12;;;;;;;3.63;2.73;;;;;;;;;;5100002;28;20452;-73
2021/04/03 11:47:38;;;;;;;3.47;2.80;;;;;;;;;;5095658;27;20417;-73
2021/04/03 11:50:05;;;;;;;2.60;2.10;;;;;;;;;;5090573;28;20941;-73
2021/04/03 11:52:33;;;;;;;2.90;2.10;;;;;;;;;;5091411;28;20437;-72
2021/04/03 11:54:59;;;;;;;5.70;2.87;;;;;;;;;;5097635;28;20463;-74
2021/04/03 11:57:25;;;;;;;3.67;3.33;;;;;;;;;;5090430;28;20527;-74
2021/04/03 11:59:51;;;;;;;4.83;4.00;;;;;;;;;;5078658;28;20419;-76
2021/04/03 12:02:17;;;;;;;3.30;3.00;;;;;;;;;;5089101;28;20778;-76
2021/04/03 12:04:43;;;;;;;3.90;3.50;;;;;;;;;;5102588;28;20434;-76
2021/04/03 12:07:09;;;;;;;3.90;3.20;;;;;;;;;;5091835;28;20414;-74
2021/04/03 12:09:35;;;;;;;4.20;3.50;;;;;;;;;;5090381;28;20464;-74
2021/04/03 12:12:01;;;;;;;3.30;3.00;;;;;;;;;;5109734;28;20440;-75
2021/04/03 12:14:27;;;;;;;4.17;3.77;;;;;;;;;;5098395;27;20428;-72
2021/04/03 12:16:53;;;;;;;5.30;4.80;;;;;;;;;;5103325;28;20515;-72
2021/04/03 12:19:19;;;;;;;3.20;2.80;;;;;;;;;;5102177;28;20466;-73
2021/04/03 12:21:45;;;;;;;2.87;2.57;;;;;;;;;;5110709;28;20412;-74
2021/04/03 12:24:11;;;;;;;4.20;3.23;;;;;;;;;;5094051;28;20422;-75
2021/04/03 12:26:37;;;;;;;4.10;2.97;;;;;;;;;;5090012;28;20486;-75
2021/04/03 12:29:03;;;;;;;4.10;2.90;;;;;;;;;;5089575;28;20417;-74
2021/04/03 12:31:29;;;;;;;3.57;2.90;;;;;;;;;;5090184;28;20496;-72
2021/04/03 12:33:55;;;;;;;3.00;2.50;;;;;;;;;;5089496;28;20436;-75
2021/04/03 12:36:22;;;;;;;3.10;2.80;;;;;;;;;;5091239;28;20867;-72
2021/04/03 12:38:48;;;;;;;3.23;2.93;;;;;;;;;;5089110;28;20476;-73
2021/04/03 12:41:14;;;;;;;6.40;3.27;;;;;;;;;;5094891;28;21105;-73
2021/04/03 12:43:40;;;;;;;3.37;3.07;;;;;;;;;;5081050;28;21138;-73
2021/04/03 12:46:06;;;;;;;3.50;3.20;;;;;;;;;;5092755;28;20444;-74
2021/04/03 12:48:33;;;;;;;4.10;3.70;;;;;;;;;;5108443;28;20432;-73
2021/04/03 12:50:59;;;;;;;3.10;2.80;;;;;;;;;;5104535;28;20457;-75
2021/04/03 12:53:26;;;;;;;3.30;3.00;;;;;;;;;;5106284;28;20417;-73
2021/04/03 12:55:52;;;;;;;3.40;2.90;;;;;;;;;;5105231;28;20449;-72
2021/04/03 12:58:19;;;;;;;3.40;2.63;;;;;;;;;;5088874;28;20787;-74
2021/04/03 13:00:45;;;;;;;2.80;2.20;;;;;;;;;;5102926;28;20471;-73
2021/04/03 13:03:11;;;;;;;5.03;2.70;;;;;;;;;;5088060;28;20428;-78
2021/04/03 13:05:37;;;;;;;3.57;3.27;;;;;;;;;;5094632;28;20926;-77
2021/04/03 13:08:03;;;;;;;5.77;3.43;;;;;;;;;;5100313;28;20566;-77
2021/04/03 13:10:29;;;;;;;4.50;3.10;;;;;;;;;;5095098;28;20497;-77
2021/04/03 13:12:55;;;;;;;3.90;3.50;;;;;;;;;;5109656;28;20507;-77
2021/04/03 13:15:21;;;;;;;3.93;3.53;;;;;;;;;;5094949;28;20546;-77
2021/04/03 13:17:47;;;;;;;4.37;3.97;;;;;;;;;;5089383;28;20964;-77
2021/04/03 13:20:14;;;;;;;7.30;5.53;;;;;;;;;;5094444;28;20519;-77
2021/04/03 13:22:40;;;;;;;4.50;4.10;;;;;;;;;;5109751;28;20416;-77
2021/04/03 13:25:06;;;;;;;5.57;5.07;;;;;;;;;;5097510;28;20984;-77
2021/04/03 13:27:33;;;;;;;6.90;6.30;;;;;;;;;;5089134;28;20482;-77
2021/04/03 13:29:59;;;;;;;4.03;3.63;;;;;;;;;;5095122;28;20951;-77
2021/04/03 13:32:25;;;;;;;5.40;4.90;;;;;;;;;;5096654;28;20760;-77
2021/04/03 13:34:51;;;;;;;6.80;5.23;;;;;;;;;;5088479;28;20434;-77
2021/04/03 13:37:17;;;;;;;5.33;4.83;;;;;;;;;;5088984;28;20849;-77
2021/04/03 13:39:44;;;;;;;3.83;3.53;;;;;;;;;;5089232;28;20431;-77
2021/04/03 13:42:10;;;;;;;4.13;3.00;;;;;;;;;;5101069;28;20856;-76
2021/04/03 13:44:36;;;;;;;4.03;3.60;;;;;;;;;;5104710;28;20933;-78
2021/04/03 13:47:03;;;;;;;3.13;2.73;;;;;;;;;;5089888;28;20770;-78
2021/04/03 13:49:29;;;;;;;2.93;2.63;;;;;;;;;;5090030;28;20770;-77
2021/04/03 13:51:55;;;;;;;3.00;2.60;;;;;;;;;;5089767;28;20416;-76
2021/04/03 13:54:21;;;;;;;2.83;2.50;;;;;;;;;;5089085;28;20447;-76
2021/04/03 13:56:47;;;;;;;4.37;3.00;;;;;;;;;;5089628;28;20476;-78
2021/04/03 13:59:13;;;;;;;3.83;3.20;;;;;;;;;;5089412;28;20986;-76
2021/04/03 14:01:39;;;;;;;5.60;3.70;;;;;;;;;;5089527;28;20440;-77
2021/04/03 14:04:05;;;;;;;3.37;2.97;;;;;;;;;;5075392;28;20814;-77
2021/04/03 14:06:32;;;;;;;3.10;2.80;;;;;;;;;;5089164;28;20440;-76
2021/04/03 14:08:58;;;;;;;4.07;2.97;;;;;;;;;;5089002;28;20429;-77
2021/04/03 14:11:24;;;;;;;4.43;3.20;;;;;;;;;;5091166;28;20205;-76
2021/04/03 14:13:50;;;;;;;3.70;2.60;;;;;;;;;;5092597;28;20433;-76
2021/04/03 14:16:16;;;;;;;3.30;2.80;;;;;;;;;;5106597;28;20571;-77
2021/04/03 14:18:42;;;;;;;4.07;2.67;;;;;;;;;;5096020;28;20538;-77
2021/04/03 14:21:09;;;;;;;3.23;2.90;;;;;;;;;;5092716;28;20933;-77
2021/04/03 14:23:35;;;;;;;3.70;3.00;;;;;;;;;;5097159;28;20422;-76
2021/04/03 14:26:03;;;;;;;3.73;2.70;;;;;;;;;;5092253;28;20442;-76
2021/04/03 14:28:29;;;;;;;3.77;2.60;;;;;;;;;;5099931;28;20847;-75
2021/04/03 14:30:55;;;;;;;3.30;2.90;;;;;;;;;;5093002;28;20914;-76
2021/04/03 14:33:21;;;;;;;3.50;3.10;;;;;;;;;;5091180;28;20930;-76
2021/04/03 14:35:47;;;;;;;3.80;2.70;;;;;;;;;;5092073;28;20448;-75
2021/04/03 14:38:13;;;;;;;3.93;3.57;;;;;;;;;;5091760;28;20457;-76